Time;durP1;ratioP1;P1;durP2;ratioP2;P2;SDS_P1;SDS_P2;PMS_P1;PMS_P2;Temp;Humidity;BMP_temperature;BMP_pressure;BME280_temperature;BME280_humidity;BME280_pressure;Samples;Min_cycle;Max_cycle;Signal;HPM_P1;HPM_P2
2021/06/17 00:00:16;;;;;;;;;;;25.90;65.10;;;;;;4336317;32;22659;-80
2021/06/17 00:02:44;;;;;;;;;;;25.80;65.00;;;;;;4344871;33;42428;-79
2021/06/17 00:05:12;;;;;;;;;;;25.80;65.00;;;;;;4345154;33;43224;-80
2021/06/17 00:07:43;;;;;;;;;;;25.80;65.00;;;;;;4347223;33;20009;-80
2021/06/17 00:10:21;;;;;;;;;;;25.80;65.00;;;;;;4334001;33;20017;-80
2021/06/17 00:12:48;;;;;;;;;;;25.80;64.90;;;;;;4334052;33;20410;-80
2021/06/17 00:15:16;;;;;;;;;;;25.80;64.80;;;;;;4346474;33;20001;-81
2021/06/17 00:17:46;;;;;;;;;;;25.70;64.70;;;;;;4346058;32;19993;-81
2021/06/17 00:20:14;;;;;;;;;;;25.70;64.70;;;;;;4345246;33;36383;-80
2021/06/17 00:22:42;;;;;;;;;;;25.70;64.70;;;;;;4332849;33;34789;-80
2021/06/17 00:25:15;;;;;;;;;;;25.70;64.60;;;;;;4345600;33;31196;-80
2021/06/17 00:27:42;;;;;;;;;;;25.70;64.60;;;;;;4345927;33;20006;-80
2021/06/17 00:30:13;;;;;;;;;;;25.60;64.50;;;;;;4344917;33;35674;-80
2021/06/17 00:32:40;;;;;;;;;;;25.60;64.40;;;;;;4346376;33;42249;-80
2021/06/17 00:35:08;;;;;;;;;;;25.60;64.40;;;;;;4332635;33;35744;-81
2021/06/17 00:37:37;;;;;;;;;;;25.60;64.40;;;;;;4333125;33;33941;-81
2021/06/17 00:40:05;;;;;;;;;;;25.60;64.50;;;;;;4345072;33;33925;-81
2021/06/17 00:42:33;;;;;;;;;;;25.60;64.50;;;;;;4332376;33;41644;-81
2021/06/17 00:45:00;;;;;;;;;;;25.60;64.50;;;;;;4344968;33;43109;-81
2021/06/17 00:47:27;;;;;;;;;;;25.60;64.50;;;;;;4345074;33;39967;-81
2021/06/17 00:49:57;;;;;;;;;;;25.60;64.40;;;;;;4344990;33;23296;-81
2021/06/17 00:52:28;;;;;;;;;;;25.50;64.20;;;;;;4333058;33;38808;-82
2021/06/17 00:54:59;;;;;;;;;;;25.50;64.20;;;;;;4332682;33;40991;-82
2021/06/17 00:57:27;;;;;;;;;;;25.50;64.10;;;;;;4345205;33;27196;-81
2021/06/17 00:59:54;;;;;;;;;;;25.50;64.00;;;;;;4332201;33;40134;-81
2021/06/17 01:02:24;;;;;;;;;;;25.50;64.10;;;;;;4331914;33;47156;-82
2021/06/17 01:04:52;;;;;;;;;;;25.50;64.10;;;;;;4344677;33;45096;-82
2021/06/17 01:07:31;;;;;;;;;;;25.50;64.00;;;;;;4332949;33;24605;-82
2021/06/17 01:10:06;;;;;;;;;;;25.40;63.80;;;;;;4346813;33;20020;-81
2021/06/17 01:12:36;;;;;;;;;;;25.40;63.90;;;;;;4345652;33;20020;-81
2021/06/17 01:15:10;;;;;;;;;;;25.40;63.80;;;;;;4344882;33;20001;-81
2021/06/17 01:17:45;;;;;;;;;;;25.40;63.90;;;;;;4333694;33;19997;-81
2021/06/17 01:20:28;;;;;;;;;;;25.40;63.90;;;;;;4345591;33;20001;-80
2021/06/17 01:23:08;;;;;;;;;;;25.40;63.90;;;;;;4345269;33;23780;-80
2021/06/17 01:25:50;;;;;;;;;;;25.30;63.70;;;;;;4346748;33;20008;-81
2021/06/17 01:28:26;;;;;;;;;;;25.30;63.80;;;;;;4345663;33;20009;-81
2021/06/17 01:31:01;;;;;;;;;;;25.30;63.70;;;;;;4333025;33;20417;-80
2021/06/17 01:33:31;;;;;;;;;;;25.30;63.60;;;;;;4345465;33;19997;-81
2021/06/17 01:36:02;;;;;;;;;;;25.30;63.50;;;;;;4345488;33;20454;-81
2021/06/17 01:38:34;;;;;;;;;;;25.30;63.60;;;;;;4345735;33;20052;-80
2021/06/17 01:41:07;;;;;;;;;;;25.20;63.50;;;;;;4345348;33;20002;-80
2021/06/17 01:43:35;;;;;;;;;;;25.20;63.30;;;;;;4345273;33;20041;-80
2021/06/17 01:46:05;;;;;;;;;;;25.20;64.10;;;;;;4333532;33;20398;-80
2021/06/17 01:48:34;;;;;;;;;;;25.20;63.30;;;;;;4344909;33;20011;-80
2021/06/17 01:51:04;;;;;;;;;;;25.20;63.30;;;;;;4332850;33;20005;-80
2021/06/17 01:53:35;;;;;;;;;;;25.20;63.30;;;;;;4344980;33;20052;-81
2021/06/17 01:56:05;;;;;;;;;;;25.20;63.20;;;;;;4347631;33;20023;-80
2021/06/17 01:58:38;;;;;;;;;;;25.20;63.20;;;;;;4336100;33;20008;-80
2021/06/17 02:01:08;;;;;;;;;;;25.20;63.10;;;;;;4336279;33;20001;-80
2021/06/17 02:03:41;;;;;;;;;;;25.10;62.90;;;;;;4335333;33;20006;-81
2021/06/17 02:06:14;;;;;;;;;;;25.10;62.90;;;;;;4348512;33;20443;-80
2021/06/17 02:08:53;;;;;;;;;;;25.10;62.90;;;;;;4336066;33;20004;-80
2021/06/17 02:11:27;;;;;;;;;;;25.10;62.90;;;;;;4348439;33;20056;-80
2021/06/17 02:13:54;;;;;;;;;;;25.10;62.80;;;;;;4335581;33;20031;-80
2021/06/17 02:16:26;;;;;;;;;;;25.10;62.70;;;;;;4347756;33;20020;-80
2021/06/17 02:19:01;;;;;;;;;;;25.10;62.60;;;;;;4348417;33;20044;-79
2021/06/17 02:21:31;;;;;;;;;;;25.10;62.50;;;;;;4348364;33;20005;-79
2021/06/17 02:23:59;;;;;;;;;;;25.00;62.50;;;;;;4347608;33;20456;-80
2021/06/17 02:26:32;;;;;;;;;;;25.10;62.50;;;;;;4336099;33;20012;-79
2021/06/17 02:29:03;;;;;;;;;;;25.10;62.50;;;;;;4335068;33;20031;-80
2021/06/17 02:31:35;;;;;;;;;;;25.10;62.50;;;;;;4335945;33;20004;-80
2021/06/17 02:34:04;;;;;;;;;;;25.00;62.40;;;;;;4335816;33;20017;-80
2021/06/17 02:36:39;;;;;;;;;;;25.00;62.40;;;;;;4348001;33;20350;-79
2021/06/17 02:39:07;;;;;;;;;;;25.00;62.30;;;;;;4335388;33;20440;-79
2021/06/17 02:41:40;;;;;;;;;;;25.00;62.30;;;;;;4335637;33;20407;-78
2021/06/17 02:44:11;;;;;;;;;;;25.00;62.30;;;;;;4347788;33;20440;-79
2021/06/17 02:46:41;;;;;;;;;;;25.00;62.30;;;;;;4335844;33;20351;-78
2021/06/17 02:49:12;;;;;;;;;;;25.00;62.30;;;;;;4347467;33;20041;-80
2021/06/17 02:51:45;;;;;;;;;;;24.90;62.10;;;;;;4335183;33;20067;-79
2021/06/17 02:54:18;;;;;;;;;;;25.00;62.20;;;;;;4346852;33;32453;-80
2021/06/17 02:56:59;;;;;;;;;;;25.00;62.10;;;;;;4346662;33;34285;-79
2021/06/17 02:59:45;;;;;;;;;;;25.00;62.10;;;;;;4347415;33;20402;-77
2021/06/17 03:02:15;;;;;;;;;;;25.00;62.10;;;;;;4347043;33;20032;-79
2021/06/17 03:04:51;;;;;;;;;;;24.90;62.00;;;;;;4346887;33;23060;-80
2021/06/17 03:07:26;;;;;;;;;;;24.90;61.90;;;;;;4359797;32;20017;-79
2021/06/17 03:10:10;;;;;;;;;;;24.90;62.00;;;;;;4335505;33;19998;-79
2021/06/17 03:12:45;;;;;;;;;;;24.90;62.00;;;;;;4359186;32;20017;-78
2021/06/17 03:15:15;;;;;;;;;;;24.80;61.90;;;;;;4347338;33;20019;-78
2021/06/17 03:17:51;;;;;;;;;;;24.90;62.00;;;;;;4348056;33;20010;-79
2021/06/17 03:20:22;;;;;;;;;;;24.90;61.90;;;;;;4347451;33;20042;-78
2021/06/17 03:23:00;;;;;;;;;;;24.80;61.80;;;;;;4348440;33;20066;-78
2021/06/17 03:25:34;;;;;;;;;;;24.80;61.80;;;;;;4347462;33;20406;-77
2021/06/17 03:28:05;;;;;;;;;;;24.80;61.70;;;;;;4348249;33;20182;-78
2021/06/17 03:30:32;;;;;;;;;;;24.80;61.70;;;;;;4346947;33;20057;-78
2021/06/17 03:33:11;;;;;;;;;;;24.80;61.80;;;;;;4347320;33;20406;-78
2021/06/17 03:35:44;;;;;;;;;;;24.80;61.70;;;;;;4346823;33;20015;-79
2021/06/17 03:38:18;;;;;;;;;;;24.80;61.70;;;;;;4347243;33;20057;-79
2021/06/17 03:40:52;;;;;;;;;;;24.80;61.60;;;;;;4334804;33;20406;-78
2021/06/17 03:43:26;;;;;;;;;;;24.80;61.60;;;;;;4346963;33;20060;-78
2021/06/17 03:45:59;;;;;;;;;;;24.80;61.60;;;;;;4348317;32;20040;-79
2021/06/17 03:48:34;;;;;;;;;;;24.80;61.50;;;;;;4346968;33;20069;-79
2021/06/17 03:51:08;;;;;;;;;;;24.80;61.60;;;;;;4346622;33;20080;-78
2021/06/17 03:53:43;;;;;;;;;;;24.80;61.40;;;;;;4346841;33;20424;-78
2021/06/17 03:56:13;;;;;;;;;;;24.70;61.30;;;;;;4346927;33;20366;-77
2021/06/17 03:58:50;;;;;;;;;;;24.80;61.40;;;;;;4346899;33;20023;-79
2021/06/17 04:01:20;;;;;;;;;;;24.80;61.30;;;;;;4347470;32;20077;-79
2021/06/17 04:03:51;;;;;;;;;;;24.80;61.20;;;;;;4348776;32;22479;-78
2021/06/17 04:06:25;;;;;;;;;;;24.80;61.30;;;;;;4336152;32;20009;-79
2021/06/17 04:08:55;;;;;;;;;;;24.80;61.10;;;;;;4361540;32;20016;-79
2021/06/17 04:11:26;;;;;;;;;;;24.70;60.90;;;;;;4348467;32;22530;-78
2021/06/17 04:13:53;;;;;;;;;;;24.80;61.00;;;;;;4360720;32;39367;-78
2021/06/17 04:16:22;;;;;;;;;;;24.80;61.00;;;;;;4361367;32;38682;-78
2021/06/17 04:18:53;;;;;;;;;;;24.80;60.90;;;;;;4347814;32;36831;-79
2021/06/17 04:21:20;;;;;;;;;;;24.80;61.00;;;;;;4335458;32;44042;-77
2021/06/17 04:23:54;;;;;;;;;;;24.80;60.90;;;;;;4335470;32;44990;-79
2021/06/17 04:26:23;;;;;;;;;;;24.80;60.80;;;;;;4361561;32;20017;-76
2021/06/17 04:28:56;;;;;;;;;;;24.80;60.70;;;;;;4348328;32;20000;-77
2021/06/17 04:31:25;;;;;;;;;;;24.80;60.70;;;;;;4347260;32;42476;-77
2021/06/17 04:33:52;;;;;;;;;;;24.80;60.80;;;;;;4360670;32;20076;-77
2021/06/17 04:36:19;;;;;;;;;;;24.80;60.60;;;;;;4347859;32;37940;-77
2021/06/17 04:38:50;;;;;;;;;;;24.80;60.60;;;;;;4360183;32;34569;-78
2021/06/17 04:41:17;;;;;;;;;;;24.80;60.50;;;;;;4348330;32;20001;-77
2021/06/17 04:43:47;;;;;;;;;;;24.80;60.40;;;;;;4360023;32;21060;-77
2021/06/17 04:46:18;;;;;;;;;;;24.80;60.40;;;;;;4360080;32;40029;-77
2021/06/17 04:48:46;;;;;;;;;;;24.80;60.40;;;;;;4359847;32;36015;-80
2021/06/17 04:51:15;;;;;;;;;;;24.80;60.40;;;;;;4347951;32;24905;-77
2021/06/17 04:53:50;;;;;;;;;;;24.80;60.40;;;;;;4347509;32;33041;-77
2021/06/17 04:56:17;;;;;;;;;;;24.80;60.40;;;;;;4335181;32;38161;-78
2021/06/17 04:58:50;;;;;;;;;;;24.80;60.40;;;;;;4335313;32;34941;-77
2021/06/17 05:01:18;;;;;;;;;;;24.80;60.40;;;;;;4347432;32;35785;-75
2021/06/17 05:03:49;;;;;;;;;;;24.80;60.40;;;;;;4347421;32;38562;-76
2021/06/17 05:06:19;;;;;;;;;;;24.80;60.40;;;;;;4347000;32;42788;-76
2021/06/17 05:11:40;;;;;;;;;;;24.80;60.40;;;;;;4361482;32;20038;-76
2021/06/17 05:14:07;;;;;;;;;;;24.80;60.40;;;;;;4347764;32;20371;-77
2021/06/17 05:16:40;;;;;;;;;;;24.80;60.50;;;;;;4347328;32;20015;-79
2021/06/17 05:19:17;;;;;;;;;;;24.80;60.60;;;;;;4361808;32;20016;-76
2021/06/17 05:21:49;;;;;;;;;;;24.80;60.70;;;;;;4360549;32;20009;-76
2021/06/17 05:24:19;;;;;;;;;;;24.80;60.70;;;;;;4347077;32;38067;-77
2021/06/17 05:26:50;;;;;;;;;;;24.80;60.60;;;;;;4360832;32;25455;-77
2021/06/17 05:29:22;;;;;;;;;;;24.80;60.80;;;;;;4347182;33;20447;-79
2021/06/17 05:31:53;;;;;;;;;;;24.80;60.70;;;;;;4346791;32;40814;-78
2021/06/17 05:34:23;;;;;;;;;;;24.80;60.80;;;;;;4346773;32;27881;-79
2021/06/17 05:36:53;;;;;;;;;;;24.80;60.90;;;;;;4347065;32;35778;-76
2021/06/17 05:39:22;;;;;;;;;;;24.80;60.80;;;;;;4360490;32;39308;-79
2021/06/17 05:41:50;;;;;;;;;;;24.80;60.80;;;;;;4361504;33;20421;-76
2021/06/17 05:44:22;;;;;;;;;;;24.80;60.90;;;;;;4347957;33;20009;-77
2021/06/17 05:46:52;;;;;;;;;;;24.80;60.90;;;;;;4347546;33;20020;-79
2021/06/17 05:49:24;;;;;;;;;;;24.70;60.90;;;;;;4361040;33;20020;-76
2021/06/17 05:51:56;;;;;;;;;;;24.70;60.90;;;;;;4360328;33;31337;-77
2021/06/17 05:54:26;;;;;;;;;;;24.70;61.00;;;;;;4346770;33;38816;-79
2021/06/17 05:56:54;;;;;;;;;;;24.70;61.00;;;;;;4346241;33;42931;-79
2021/06/17 05:59:30;;;;;;;;;;;24.70;61.00;;;;;;4347815;33;20017;-77
2021/06/17 06:01:57;;;;;;;;;;;24.70;61.10;;;;;;4360078;33;36557;-78
2021/06/17 06:04:24;;;;;;;;;;;24.70;61.00;;;;;;4360024;32;43666;-77
2021/06/17 06:06:51;;;;;;;;;;;24.70;61.30;;;;;;4334343;33;34724;-77
2021/06/17 06:09:19;;;;;;;;;;;24.70;61.50;;;;;;4334356;33;41158;-78
2021/06/17 06:11:49;;;;;;;;;;;24.70;61.40;;;;;;4346873;33;19997;-78
2021/06/17 06:14:16;;;;;;;;;;;24.80;61.40;;;;;;4334298;33;42629;-79
2021/06/17 06:16:47;;;;;;;;;;;24.70;61.40;;;;;;4360837;33;20020;-80
2021/06/17 06:19:18;;;;;;;;;;;24.80;61.50;;;;;;4335881;33;20027;-79
2021/06/17 06:21:50;;;;;;;;;;;24.80;61.60;;;;;;4360066;33;40271;-78
2021/06/17 06:24:20;;;;;;;;;;;24.70;61.40;;;;;;4360128;33;44752;-80
2021/06/17 06:26:50;;;;;;;;;;;24.80;61.60;;;;;;4346467;33;44147;-78
2021/06/17 06:29:17;;;;;;;;;;;24.70;61.60;;;;;;4359485;32;22209;-81
2021/06/17 06:31:44;;;;;;;;;;;24.70;61.60;;;;;;4333924;33;37702;-79
2021/06/17 06:34:17;;;;;;;;;;;24.70;61.70;;;;;;4346509;33;27373;-78
2021/06/17 06:36:47;;;;;;;;;;;24.70;61.80;;;;;;4360006;33;40298;-79
2021/06/17 06:39:18;;;;;;;;;;;24.70;61.90;;;;;;4346035;33;42879;-81
2021/06/17 06:41:48;;;;;;;;;;;24.80;62.00;;;;;;4361671;32;38555;-79
2021/06/17 06:44:15;;;;;;;;;;;24.80;62.00;;;;;;4348997;32;46123;-78
2021/06/17 06:46:42;;;;;;;;;;;24.80;62.00;;;;;;4348907;32;37035;-79
2021/06/17 06:49:10;;;;;;;;;;;24.80;62.10;;;;;;4349356;32;20020;-81
2021/06/17 06:51:41;;;;;;;;;;;24.80;62.20;;;;;;4337681;32;20015;-79
2021/06/17 06:54:09;;;;;;;;;;;24.80;62.20;;;;;;4349267;32;20426;-79
2021/06/17 06:56:37;;;;;;;;;;;24.90;62.30;;;;;;4362322;32;20005;-80
2021/06/17 06:59:06;;;;;;;;;;;24.90;62.50;;;;;;4362284;32;45270;-80
2021/06/17 07:01:37;;;;;;;;;;;25.00;62.50;;;;;;4349648;32;20020;-81
2021/06/17 07:04:05;;;;;;;;;;;25.00;62.70;;;;;;4336497;32;32866;-79
2021/06/17 07:06:32;;;;;;;;;;;25.00;62.70;;;;;;4348410;32;43094;-77
2021/06/17 07:09:02;;;;;;;;;;;25.00;62.80;;;;;;4349444;32;19993;-81
2021/06/17 07:11:32;;;;;;;;;;;25.00;62.70;;;;;;4363474;32;20055;-80
2021/06/17 07:13:59;;;;;;;;;;;25.00;62.80;;;;;;4348653;32;30066;-78
2021/06/17 07:16:30;;;;;;;;;;;25.00;63.00;;;;;;4362169;32;20017;-80
2021/06/17 07:19:02;;;;;;;;;;;25.00;62.90;;;;;;4348800;32;20807;-79
2021/06/17 07:21:34;;;;;;;;;;;25.10;63.70;;;;;;4349691;32;20015;-80
2021/06/17 07:24:02;;;;;;;;;;;25.10;63.10;;;;;;4348145;32;43160;-80
2021/06/17 07:26:29;;;;;;;;;;;25.10;63.20;;;;;;4362819;32;20005;-80
2021/06/17 07:28:57;;;;;;;;;;;25.10;63.20;;;;;;4349748;32;20423;-80
2021/06/17 07:31:27;;;;;;;;;;;25.10;63.20;;;;;;4361368;32;44621;-81
2021/06/17 07:33:54;;;;;;;;;;;25.10;63.20;;;;;;4363029;32;20071;-79
2021/06/17 07:36:22;;;;;;;;;;;25.10;63.10;;;;;;4349022;32;20008;-80
2021/06/17 07:38:52;;;;;;;;;;;25.20;63.20;;;;;;4348105;32;43103;-78
2021/06/17 07:41:22;;;;;;;;;;;25.10;63.20;;;;;;4335779;32;41549;-78
2021/06/17 07:43:52;;;;;;;;;;;25.10;63.20;;;;;;4360738;32;35827;-79
2021/06/17 07:46:22;;;;;;;;;;;25.20;63.30;;;;;;4347921;32;40191;-79
2021/06/17 07:48:49;;;;;;;;;;;25.20;64.10;;;;;;4348135;32;43823;-79
2021/06/17 07:51:20;;;;;;;;;;;25.20;63.20;;;;;;4347853;32;47050;-79
2021/06/17 07:53:47;;;;;;;;;;;25.20;63.20;;;;;;4361011;32;20043;-80
2021/06/17 07:56:17;;;;;;;;;;;25.20;63.30;;;;;;4348892;32;20075;-79
2021/06/17 07:58:46;;;;;;;;;;;25.20;63.30;;;;;;4348057;32;41791;-79
2021/06/17 08:01:13;;;;;;;;;;;25.20;63.20;;;;;;4361433;32;24077;-80
2021/06/17 08:03:40;;;;;;;;;;;25.20;63.20;;;;;;4360036;32;38393;-80
2021/06/17 08:06:10;;;;;;;;;;;25.20;63.30;;;;;;4362256;32;20023;-79
2021/06/17 08:08:40;;;;;;;;;;;25.20;63.30;;;;;;4362201;32;20039;-80
2021/06/17 08:11:08;;;;;;;;;;;25.20;63.30;;;;;;4336129;32;28221;-79
2021/06/17 08:13:52;;;;;;;;;;;25.20;63.30;;;;;;4361401;32;44309;-79
2021/06/17 08:16:19;;;;;;;;;;;25.30;63.50;;;;;;4361287;32;44689;-78
2021/06/17 08:18:47;;;;;;;;;;;25.30;63.50;;;;;;4361328;32;41203;-79
2021/06/17 08:21:14;;;;;;;;;;;25.30;63.60;;;;;;4361512;32;38870;-79
2021/06/17 08:23:41;;;;;;;;;;;25.30;63.50;;;;;;4360685;32;43517;-78
2021/06/17 08:26:08;;;;;;;;;;;25.30;63.60;;;;;;4347180;32;44735;-78
2021/06/17 08:28:35;;;;;;;;;;;25.30;63.70;;;;;;4347716;32;44033;-77
2021/06/17 08:31:02;;;;;;;;;;;25.30;63.70;;;;;;4347636;32;43426;-77
2021/06/17 08:33:33;;;;;;;;;;;25.40;63.80;;;;;;4359996;32;42179;-77
2021/06/17 08:36:02;;;;;;;;;;;25.40;63.90;;;;;;4348017;32;36010;-78
2021/06/17 08:38:30;;;;;;;;;;;25.40;63.80;;;;;;4347330;32;44755;-77
2021/06/17 08:40:57;;;;;;;;;;;25.40;63.90;;;;;;4347252;32;39013;-76
2021/06/17 08:43:24;;;;;;;;;;;25.40;63.80;;;;;;4347078;32;44471;-77
2021/06/17 08:45:51;;;;;;;;;;;25.40;63.90;;;;;;4360376;32;44657;-78
2021/06/17 08:48:20;;;;;;;;;;;25.40;63.90;;;;;;4348570;32;20075;-77
2021/06/17 08:50:53;;;;;;;;;;;25.50;64.00;;;;;;4360549;32;44530;-77
2021/06/17 08:53:21;;;;;;;;;;;25.50;64.10;;;;;;4359973;32;34270;-77
2021/06/17 08:55:48;;;;;;;;;;;25.50;64.20;;;;;;4360576;32;44296;-77
2021/06/17 08:58:15;;;;;;;;;;;25.50;64.20;;;;;;4360754;32;34105;-77
2021/06/17 09:00:46;;;;;;;;;;;25.50;64.30;;;;;;4360824;32;44390;-79
2021/06/17 09:03:17;;;;;;;;;;;25.50;64.50;;;;;;4348541;32;20075;-77
2021/06/17 09:05:50;;;;;;;;;;;25.60;64.50;;;;;;4346734;32;41619;-77
2021/06/17 09:08:26;;;;;;;;;;;25.60;64.50;;;;;;4361223;32;21071;-77
2021/06/17 09:10:54;;;;;;;;;;;25.60;64.60;;;;;;4360642;32;20064;-77
2021/06/17 09:13:26;;;;;;;;;;;25.60;64.60;;;;;;4360369;32;36030;-77
2021/06/17 09:15:55;;;;;;;;;;;25.60;64.80;;;;;;4359384;32;45124;-76
2021/06/17 09:18:26;;;;;;;;;;;25.60;64.60;;;;;;4346874;32;44226;-76
2021/06/17 09:20:55;;;;;;;;;;;25.70;64.90;;;;;;4360775;32;33339;-76
2021/06/17 09:23:22;;;;;;;;;;;25.70;64.80;;;;;;4361567;32;20016;-76
2021/06/17 09:25:50;;;;;;;;;;;25.70;65.10;;;;;;4347757;32;19997;-76
2021/06/17 09:28:17;;;;;;;;;;;25.70;65.00;;;;;;4359745;32;20413;-76
2021/06/17 09:30:50;;;;;;;;;;;25.80;65.20;;;;;;4359316;32;44988;-77
2021/06/17 09:33:17;;;;;;;;;;;25.80;65.30;;;;;;4360275;32;44925;-77
2021/06/17 09:35:48;;;;;;;;;;;25.80;65.80;;;;;;4359916;32;38429;-80
2021/06/17 09:38:22;;;;;;;;;;;25.90;65.50;;;;;;4360076;32;20430;-77
2021/06/17 09:40:50;;;;;;;;;;;25.90;65.40;;;;;;4361375;32;20008;-79
2021/06/17 09:43:24;;;;;;;;;;;25.90;65.50;;;;;;4361007;32;20072;-79
2021/06/17 09:45:53;;;;;;;;;;;26.00;65.80;;;;;;4346889;33;43437;-80
2021/06/17 09:48:29;;;;;;;;;;;26.00;65.70;;;;;;4358613;33;43509;-78
2021/06/17 09:50:56;;;;;;;;;;;26.10;65.80;;;;;;4360966;33;20459;-80
2021/06/17 09:53:25;;;;;;;;;;;26.10;66.40;;;;;;4347487;33;20004;-80
2021/06/17 09:55:57;;;;;;;;;;;26.10;65.70;;;;;;4360548;33;20056;-80
2021/06/17 09:58:35;;;;;;;;;;;26.20;66.00;;;;;;4360805;33;20114;-79
2021/06/17 10:01:03;;;;;;;;;;;26.20;65.80;;;;;;4359894;33;20009;-80
2021/06/17 10:03:30;;;;;;;;;;;26.20;65.70;;;;;;4360633;33;20050;-80
2021/06/17 10:05:57;;;;;;;;;;;26.20;65.80;;;;;;4347777;33;20000;-79
2021/06/17 10:08:28;;;;;;;;;;;26.30;65.90;;;;;;4361634;33;20432;-79
2021/06/17 10:10:55;;;;;;;;;;;26.30;65.50;;;;;;4361109;32;20076;-80
2021/06/17 10:13:26;;;;;;;;;;;26.30;65.50;;;;;;4335439;33;19997;-82
2021/06/17 10:15:54;;;;;;;;;;;26.30;65.30;;;;;;4347347;32;22038;-81
2021/06/17 10:18:23;;;;;;;;;;;26.30;65.40;;;;;;4351195;32;20047;-80
2021/06/17 10:20:50;;;;;;;;;;;26.30;65.00;;;;;;4363495;32;20004;-80
2021/06/17 10:23:19;;;;;;;;;;;26.40;65.10;;;;;;4363878;32;20023;-80
2021/06/17 10:25:47;;;;;;;;;;;26.40;65.10;;;;;;4363221;32;20445;-80
2021/06/17 10:28:33;;;;;;;;;;;26.40;65.10;;;;;;4363689;32;20021;-81
2021/06/17 10:31:00;;;;;;;;;;;26.50;65.20;;;;;;4337278;32;20405;-79
2021/06/17 10:33:28;;;;;;;;;;;26.60;65.10;;;;;;4337902;32;20005;-80
2021/06/17 10:36:14;;;;;;;;;;;26.60;65.20;;;;;;4349746;32;20068;-80
2021/06/17 10:39:00;;;;;;;;;;;26.60;65.40;;;;;;4350139;32;23448;-83
2021/06/17 10:41:45;;;;;;;;;;;26.60;64.80;;;;;;4363399;32;20056;-81
2021/06/17 10:44:32;;;;;;;;;;;26.60;64.80;;;;;;4350605;32;20017;-80
2021/06/17 10:47:01;;;;;;;;;;;26.70;64.90;;;;;;4362945;32;20074;-80
2021/06/17 10:49:47;;;;;;;;;;;26.60;64.80;;;;;;4362833;32;22676;-81
2021/06/17 10:52:44;;;;;;;;;;;26.70;65.00;;;;;;4349663;32;20009;-80
2021/06/17 10:55:12;;;;;;;;;;;26.70;65.20;;;;;;4348363;32;20001;-79
2021/06/17 10:57:44;;;;;;;;;;;26.80;65.00;;;;;;4362016;32;22586;-80
2021/06/17 11:00:23;;;;;;;;;;;26.80;64.70;;;;;;4349820;32;19993;-79
2021/06/17 11:03:17;;;;;;;;;;;26.80;64.80;;;;;;4362917;32;20064;-79
2021/06/17 11:05:47;;;;;;;;;;;26.80;64.50;;;;;;4340517;32;20414;-79
2021/06/17 11:08:15;;;;;;;;;;;26.80;64.30;;;;;;4349721;32;20019;-77
2021/06/17 11:10:48;;;;;;;;;;;26.80;64.40;;;;;;4362834;32;20016;-80
2021/06/17 11:13:25;;;;;;;;;;;26.80;64.50;;;;;;4349076;32;23151;-80
2021/06/17 11:15:59;;;;;;;;;;;26.90;64.60;;;;;;4336645;32;26653;-78
2021/06/17 11:18:57;;;;;;;;;;;26.90;64.50;;;;;;4363067;32;20958;-81
2021/06/17 11:21:25;;;;;;;;;;;27.00;64.30;;;;;;4349231;32;20393;-79
2021/06/17 11:23:53;;;;;;;;;;;27.00;64.10;;;;;;4348875;32;20035;-79
2021/06/17 11:26:53;;;;;;;;;;;27.10;64.20;;;;;;4361371;32;20007;-80
2021/06/17 11:29:38;;;;;;;;;;;27.20;64.00;;;;;;4331440;32;20012;-79
2021/06/17 11:32:24;;;;;;;;;;;27.30;64.00;;;;;;4362718;32;20024;-79
2021/06/17 11:34:55;;;;;;;;;;;27.30;63.80;;;;;;4348773;32;20024;-80
2021/06/17 11:37:27;;;;;;;;;;;27.30;63.80;;;;;;4361602;32;20056;-81
2021/06/17 11:39:58;;;;;;;;;;;27.30;63.50;;;;;;4361553;32;20429;-79
2021/06/17 11:42:25;;;;;;;;;;;27.40;63.80;;;;;;4362763;32;20410;-81
2021/06/17 11:45:00;;;;;;;;;;;27.40;63.40;;;;;;4362405;32;19997;-83
2021/06/17 11:47:27;;;;;;;;;;;27.40;63.50;;;;;;4349222;32;20422;-80
2021/06/17 11:50:02;;;;;;;;;;;27.40;63.50;;;;;;4349637;32;20016;-78
2021/06/17 11:52:35;;;;;;;;;;;27.40;63.60;;;;;;4349024;32;20323;-78
2021/06/17 11:55:03;;;;;;;;;;;27.40;63.50;;;;;;4361867;32;20027;-79
2021/06/17 11:57:31;;;;;;;;;;;27.50;63.40;;;;;;4362753;32;20001;-81
2021/06/17 11:59:58;;;;;;;;;;;27.50;63.50;;;;;;4348783;32;20417;-79
2021/06/17 12:02:27;;;;;;;;;;;27.50;63.40;;;;;;4362285;32;20406;-80
2021/06/17 12:05:03;;;;;;;;;;;27.60;63.30;;;;;;4360882;32;20008;-79
2021/06/17 12:07:33;;;;;;;;;;;27.60;63.20;;;;;;4361134;32;20017;-79
2021/06/17 12:10:06;;;;;;;;;;;27.60;63.20;;;;;;4362602;32;20005;-81
2021/06/17 12:12:36;;;;;;;;;;;27.60;63.10;;;;;;4336614;32;20044;-80
2021/06/17 12:15:08;;;;;;;;;;;27.60;63.30;;;;;;4336464;32;20005;-78
2021/06/17 12:17:39;;;;;;;;;;;27.70;63.10;;;;;;4348670;32;20005;-81
2021/06/17 12:20:12;;;;;;;;;;;27.70;63.00;;;;;;4362346;32;20017;-78
2021/06/17 12:22:56;;;;;;;;;;;27.70;62.80;;;;;;4348546;32;20462;-79
2021/06/17 12:25:24;;;;;;;;;;;27.80;63.00;;;;;;4336935;32;20394;-80
2021/06/17 12:27:51;;;;;;;;;;;27.80;63.00;;;;;;4348152;32;20005;-82
2021/06/17 12:30:27;;;;;;;;;;;27.80;62.80;;;;;;4361794;32;20000;-80
2021/06/17 12:33:09;;;;;;;;;;;27.80;63.00;;;;;;4348891;32;20016;-81
2021/06/17 12:35:43;;;;;;;;;;;27.90;62.60;;;;;;4362036;32;20027;-80
2021/06/17 12:38:10;;;;;;;;;;;27.90;63.00;;;;;;4361814;32;20020;-81
2021/06/17 12:40:38;;;;;;;;;;;27.90;63.00;;;;;;4361437;32;20088;-79
2021/06/17 12:43:07;;;;;;;;;;;27.90;63.00;;;;;;4347989;32;20021;-81
2021/06/17 12:45:37;;;;;;;;;;;27.90;62.60;;;;;;4361960;32;20046;-79
2021/06/17 12:48:14;;;;;;;;;;;27.90;62.80;;;;;;4361898;32;20440;-80
2021/06/17 12:53:46;;;;;;;;;;;28.00;62.40;;;;;;4360768;32;40386;-81
2021/06/17 12:56:13;;;;;;;;;;;28.10;62.90;;;;;;4361295;32;22117;-80
2021/06/17 12:58:47;;;;;;;;;;;28.10;62.80;;;;;;4347667;32;20012;-80
2021/06/17 13:01:14;;;;;;;;;;;28.10;63.00;;;;;;4335719;32;19993;-80
2021/06/17 13:03:42;;;;;;;;;;;28.10;63.30;;;;;;4360418;32;19997;-79
2021/06/17 13:06:09;;;;;;;;;;;28.20;62.90;;;;;;4346673;32;45039;-81
2021/06/17 13:08:43;;;;;;;;;;;28.20;62.90;;;;;;4360907;32;29985;-78
2021/06/17 13:11:10;;;;;;;;;;;28.20;62.70;;;;;;4347271;32;40002;-78
2021/06/17 13:13:38;;;;;;;;;;;28.30;62.70;;;;;;4360297;32;42123;-82
2021/06/17 13:16:17;;;;;;;;;;;28.30;62.70;;;;;;4359953;32;20074;-77
2021/06/17 13:18:50;;;;;;;;;;;28.30;62.80;;;;;;4346963;32;44857;-78
2021/06/17 13:21:17;;;;;;;;;;;28.40;62.50;;;;;;4360532;32;40918;-79
2021/06/17 13:23:44;;;;;;;;;;;28.30;62.80;;;;;;4360559;32;37654;-78
2021/06/17 13:26:13;;;;;;;;;;;28.40;62.90;;;;;;4360409;32;41797;-78
2021/06/17 13:28:43;;;;;;;;;;;28.40;62.70;;;;;;4359844;32;43693;-77
2021/06/17 13:31:10;;;;;;;;;;;28.40;62.70;;;;;;4359291;32;45020;-80
2021/06/17 13:33:38;;;;;;;;;;;28.40;62.20;;;;;;4360613;32;33496;-82
2021/06/17 13:36:07;;;;;;;;;;;28.40;62.70;;;;;;4346696;32;44994;-78
2021/06/17 13:38:37;;;;;;;;;;;28.40;62.30;;;;;;4360243;32;45088;-79
2021/06/17 13:41:05;;;;;;;;;;;28.50;62.70;;;;;;4359795;32;44248;-76
2021/06/17 13:43:35;;;;;;;;;;;28.50;62.60;;;;;;4358859;32;43852;-80
2021/06/17 13:46:03;;;;;;;;;;;28.50;62.60;;;;;;4360281;33;39250;-78
2021/06/17 13:48:35;;;;;;;;;;;28.50;62.50;;;;;;4359706;33;23301;-79
2021/06/17 13:51:08;;;;;;;;;;;28.50;62.70;;;;;;4335664;32;42580;-79
2021/06/17 13:53:36;;;;;;;;;;;28.50;62.40;;;;;;4363376;32;44993;-77
2021/06/17 13:56:04;;;;;;;;;;;28.60;62.60;;;;;;4349261;32;43418;-79
2021/06/17 13:58:35;;;;;;;;;;;28.60;62.40;;;;;;4349342;32;41087;-78
2021/06/17 14:01:07;;;;;;;;;;;28.60;62.50;;;;;;4349228;32;45291;-79
2021/06/17 14:03:37;;;;;;;;;;;28.60;62.60;;;;;;4349536;32;38884;-80
2021/06/17 14:06:04;;;;;;;;;;;28.60;62.30;;;;;;4350310;32;35519;-77
2021/06/17 14:08:32;;;;;;;;;;;28.70;62.60;;;;;;4363053;32;37627;-78
2021/06/17 14:11:05;;;;;;;;;;;28.70;62.50;;;;;;4363109;32;41910;-79
2021/06/17 14:13:39;;;;;;;;;;;28.70;62.40;;;;;;4350779;32;20001;-79
2021/06/17 14:16:08;;;;;;;;;;;28.70;62.40;;;;;;4349598;32;44482;-79
2021/06/17 14:18:36;;;;;;;;;;;28.70;62.30;;;;;;4349320;32;44124;-79
2021/06/17 14:21:03;;;;;;;;;;;28.80;62.50;;;;;;4349267;32;37119;-78
2021/06/17 14:23:30;;;;;;;;;;;28.80;62.60;;;;;;4349239;32;44695;-81
2021/06/17 14:25:57;;;;;;;;;;;28.80;62.60;;;;;;4362791;32;43366;-78
2021/06/17 14:28:24;;;;;;;;;;;28.80;62.60;;;;;;4362338;32;42232;-79
2021/06/17 14:30:52;;;;;;;;;;;28.80;62.70;;;;;;4363169;32;35923;-79
2021/06/17 14:33:19;;;;;;;;;;;28.80;62.50;;;;;;4362972;32;41076;-79
2021/06/17 14:35:47;;;;;;;;;;;28.80;62.40;;;;;;4361314;32;38339;-80
2021/06/17 14:38:14;;;;;;;;;;;28.90;62.80;;;;;;4349737;32;29741;-79
2021/06/17 14:40:44;;;;;;;;;;;28.90;62.50;;;;;;4362656;32;39567;-79
2021/06/17 14:43:16;;;;;;;;;;;28.90;62.80;;;;;;4348969;32;41796;-79